Time;durP1;ratioP1;P1;durP2;ratioP2;P2;SDS_P1;SDS_P2;PMS_P1;PMS_P2;Temp;Humidity;BMP_temperature;BMP_pressure;BME280_temperature;BME280_humidity;BME280_pressure;Samples;Min_cycle;Max_cycle;Signal;HPM_P1;HPM_P2
2021/12/23 00:00:22;;;;;;;136.67;59.67;;;;;;;;;;4461467;32;20328;-57
2021/12/23 00:02:48;;;;;;;138.00;61.90;;;;;;;;;;4454756;32;20224;-56
2021/12/23 00:05:14;;;;;;;157.83;73.60;;;;;;;;;;4450803;32;20382;-57
2021/12/23 00:07:40;;;;;;;198.30;80.93;;;;;;;;;;4453486;32;20327;-57
2021/12/23 00:10:07;;;;;;;149.93;63.80;;;;;;;;;;4453149;32;20319;-56
2021/12/23 00:12:39;;;;;;;131.37;57.97;;;;;;;;;;4445650;32;20272;-57
2021/12/23 00:15:22;;;;;;;143.13;63.87;;;;;;;;;;4459601;32;20253;-56
2021/12/23 00:18:01;;;;;;;126.37;53.93;;;;;;;;;;4454938;32;20244;-60
2021/12/23 00:23:25;;;;;;;106.83;49.70;;;;;;;;;;4455056;32;20790;-58
2021/12/23 00:25:53;;;;;;;124.27;55.97;;;;;;;;;;4447879;32;20626;-57
2021/12/23 00:28:19;;;;;;;125.30;54.10;;;;;;;;;;4452862;32;20224;-57
2021/12/23 00:30:44;;;;;;;139.17;59.10;;;;;;;;;;4447976;32;20332;-58
2021/12/23 00:33:10;;;;;;;134.77;58.70;;;;;;;;;;4449449;32;20212;-58
2021/12/23 00:35:36;;;;;;;150.90;60.80;;;;;;;;;;4456770;32;20236;-59
2021/12/23 00:38:09;;;;;;;152.67;58.63;;;;;;;;;;4463267;32;20295;-57
2021/12/23 00:40:34;;;;;;;142.90;54.90;;;;;;;;;;4451317;32;20316;-59
2021/12/23 00:43:00;;;;;;;111.23;48.53;;;;;;;;;;4451174;32;20596;-58
2021/12/23 00:45:25;;;;;;;118.87;51.30;;;;;;;;;;4447858;32;20276;-57
2021/12/23 00:47:51;;;;;;;108.27;48.23;;;;;;;;;;4460723;32;20318;-56
2021/12/23 00:50:17;;;;;;;106.73;48.30;;;;;;;;;;4460157;32;20371;-58
2021/12/23 00:52:42;;;;;;;90.93;37.70;;;;;;;;;;4461293;32;20228;-57
2021/12/23 00:55:11;;;;;;;79.20;32.87;;;;;;;;;;4460405;32;20706;-59
2021/12/23 00:57:39;;;;;;;49.80;23.33;;;;;;;;;;4447319;32;20604;-57
2021/12/23 01:00:11;;;;;;;57.23;23.77;;;;;;;;;;4448544;32;20272;-59
2021/12/23 01:02:42;;;;;;;70.90;30.20;;;;;;;;;;4451407;32;20224;-57
2021/12/23 01:05:08;;;;;;;80.83;32.60;;;;;;;;;;4448036;32;20260;-57
2021/12/23 01:07:34;;;;;;;80.90;30.97;;;;;;;;;;4453314;32;20301;-59
2021/12/23 01:10:00;;;;;;;75.73;32.77;;;;;;;;;;4451977;32;20262;-63
2021/12/23 01:12:31;;;;;;;76.80;35.63;;;;;;;;;;4448404;32;20258;-57
2021/12/23 01:15:09;;;;;;;74.53;33.90;;;;;;;;;;4450124;32;20236;-57
2021/12/23 01:17:53;;;;;;;81.50;33.90;;;;;;;;;;4453858;32;20204;-58
2021/12/23 01:20:27;;;;;;;74.47;32.60;;;;;;;;;;4454711;32;20228;-58
2021/12/23 01:22:58;;;;;;;74.00;32.27;;;;;;;;;;4452403;32;20780;-57
2021/12/23 01:25:24;;;;;;;78.77;34.40;;;;;;;;;;4446110;32;20559;-57
2021/12/23 01:27:50;;;;;;;74.80;33.33;;;;;;;;;;4447513;32;20252;-57
2021/12/23 01:30:17;;;;;;;69.83;31.60;;;;;;;;;;4448067;32;20232;-57
2021/12/23 01:32:43;;;;;;;80.73;36.57;;;;;;;;;;4444573;32;20215;-58
2021/12/23 01:35:09;;;;;;;88.23;36.30;;;;;;;;;;4448747;32;20540;-58
2021/12/23 01:37:35;;;;;;;82.90;33.53;;;;;;;;;;4449993;32;20486;-58
2021/12/23 01:40:01;;;;;;;77.80;35.23;;;;;;;;;;4450306;32;20362;-57
2021/12/23 01:42:27;;;;;;;75.30;33.33;;;;;;;;;;4463417;32;20220;-57
2021/12/23 01:44:52;;;;;;;71.40;32.80;;;;;;;;;;4463508;32;20295;-58
2021/12/23 01:47:17;;;;;;;80.80;32.10;;;;;;;;;;4453263;32;20572;-56
2021/12/23 01:49:43;;;;;;;73.23;34.83;;;;;;;;;;4449128;32;20822;-57
2021/12/23 01:52:09;;;;;;;85.10;39.33;;;;;;;;;;4464161;32;20761;-58
2021/12/23 01:54:34;;;;;;;83.30;39.57;;;;;;;;;;4450808;32;20752;-57
2021/12/23 01:57:00;;;;;;;112.70;46.20;;;;;;;;;;4448724;32;20887;-57
2021/12/23 01:59:25;;;;;;;106.67;49.77;;;;;;;;;;4448733;32;20294;-56
2021/12/23 02:01:50;;;;;;;132.57;57.13;;;;;;;;;;4461375;32;20323;-56
2021/12/23 02:04:16;;;;;;;129.10;54.90;;;;;;;;;;4464291;32;20299;-57
2021/12/23 02:06:41;;;;;;;108.07;47.37;;;;;;;;;;4464676;32;20263;-56
2021/12/23 02:09:07;;;;;;;117.93;48.20;;;;;;;;;;4454934;32;20333;-56
2021/12/23 02:11:32;;;;;;;91.67;40.37;;;;;;;;;;4448594;32;20346;-56
2021/12/23 02:13:58;;;;;;;92.00;39.87;;;;;;;;;;4448595;32;20620;-56
2021/12/23 02:16:23;;;;;;;89.50;37.53;;;;;;;;;;4456342;32;20247;-56
2021/12/23 02:18:49;;;;;;;76.13;33.60;;;;;;;;;;4456153;32;20284;-56
2021/12/23 02:21:14;;;;;;;83.37;37.13;;;;;;;;;;4462657;32;20571;-57
2021/12/23 02:23:41;;;;;;;77.30;35.03;;;;;;;;;;4456166;32;20271;-56
2021/12/23 02:26:06;;;;;;;83.27;35.90;;;;;;;;;;4448329;32;20654;-56
2021/12/23 02:28:33;;;;;;;98.33;40.13;;;;;;;;;;4451719;32;20684;-56
2021/12/23 02:30:58;;;;;;;99.70;41.03;;;;;;;;;;4463699;32;20259;-56
2021/12/23 02:33:26;;;;;;;92.27;40.33;;;;;;;;;;4458614;32;20304;-56
2021/12/23 02:35:56;;;;;;;61.77;31.00;;;;;;;;;;4463167;32;20321;-56
2021/12/23 02:38:23;;;;;;;61.00;29.10;;;;;;;;;;4461430;32;20365;-55
2021/12/23 02:40:49;;;;;;;55.97;27.73;;;;;;;;;;4456784;32;20406;-57
2021/12/23 02:43:16;;;;;;;49.40;21.30;;;;;;;;;;4462618;32;20621;-57
2021/12/23 02:45:48;;;;;;;39.73;20.13;;;;;;;;;;4461844;32;20352;-57
2021/12/23 02:48:18;;;;;;;35.43;15.90;;;;;;;;;;4463423;32;20324;-56
2021/12/23 02:50:46;;;;;;;42.27;17.60;;;;;;;;;;4463297;32;20224;-57
2021/12/23 02:53:12;;;;;;;29.13;12.93;;;;;;;;;;4461805;32;20314;-57
2021/12/23 02:55:37;;;;;;;28.53;13.57;;;;;;;;;;4462204;32;20356;-57
2021/12/23 02:58:03;;;;;;;33.50;13.70;;;;;;;;;;4463368;32;20208;-56
2021/12/23 03:00:30;;;;;;;23.33;12.57;;;;;;;;;;4462479;32;20283;-56
2021/12/23 03:02:56;;;;;;;24.60;14.47;;;;;;;;;;4462997;32;20294;-56
2021/12/23 03:05:21;;;;;;;33.07;14.30;;;;;;;;;;4462778;32;20372;-57
2021/12/23 03:07:46;;;;;;;27.63;13.33;;;;;;;;;;4463236;32;20212;-57
2021/12/23 03:10:12;;;;;;;25.77;13.17;;;;;;;;;;4450196;32;20569;-56
2021/12/23 03:12:37;;;;;;;20.53;11.23;;;;;;;;;;4446953;32;20267;-56
2021/12/23 03:15:04;;;;;;;20.00;11.17;;;;;;;;;;4447263;32;20287;-57
2021/12/23 03:17:30;;;;;;;29.03;13.17;;;;;;;;;;4447315;32;20689;-57
2021/12/23 03:19:56;;;;;;;22.77;10.97;;;;;;;;;;4453226;32;20702;-57
2021/12/23 03:22:22;;;;;;;28.30;12.27;;;;;;;;;;4448826;32;20220;-57
2021/12/23 03:24:47;;;;;;;34.80;13.37;;;;;;;;;;4446881;32;20373;-57
2021/12/23 03:27:13;;;;;;;28.67;13.50;;;;;;;;;;4445686;32;20540;-58
2021/12/23 03:29:38;;;;;;;26.60;14.40;;;;;;;;;;4459574;32;20302;-56
2021/12/23 03:32:05;;;;;;;39.17;14.77;;;;;;;;;;4462410;32;20249;-58
2021/12/23 03:34:30;;;;;;;36.17;16.00;;;;;;;;;;4459842;32;20628;-57
2021/12/23 03:36:56;;;;;;;35.47;19.07;;;;;;;;;;4450046;32;20234;-57
2021/12/23 03:39:21;;;;;;;38.53;20.37;;;;;;;;;;4450796;32;20291;-58
2021/12/23 03:41:48;;;;;;;43.97;22.87;;;;;;;;;;4449901;32;20304;-58
2021/12/23 03:44:14;;;;;;;51.40;24.43;;;;;;;;;;4450726;32;20204;-58
2021/12/23 03:46:39;;;;;;;44.20;22.63;;;;;;;;;;4449091;32;20336;-57
2021/12/23 03:49:09;;;;;;;46.97;23.07;;;;;;;;;;4451300;32;20279;-58
2021/12/23 03:51:35;;;;;;;47.47;24.33;;;;;;;;;;4464745;32;20578;-57
2021/12/23 03:54:01;;;;;;;42.60;22.33;;;;;;;;;;4464614;32;20387;-57
2021/12/23 03:56:27;;;;;;;46.10;21.70;;;;;;;;;;4457087;32;20670;-58
2021/12/23 03:58:54;;;;;;;49.37;24.10;;;;;;;;;;4450248;32;20287;-59
2021/12/23 04:01:22;;;;;;;72.10;30.53;;;;;;;;;;4449238;32;20313;-57
2021/12/23 04:03:49;;;;;;;55.07;27.70;;;;;;;;;;4450139;32;20309;-57
2021/12/23 04:06:15;;;;;;;68.43;30.00;;;;;;;;;;4449375;32;20535;-57
2021/12/23 04:08:40;;;;;;;63.20;29.47;;;;;;;;;;4448712;32;20349;-57
2021/12/23 04:11:05;;;;;;;46.93;24.70;;;;;;;;;;4450083;32;20562;-57
2021/12/23 04:13:31;;;;;;;48.40;22.90;;;;;;;;;;4449966;32;20774;-58
2021/12/23 04:15:56;;;;;;;42.90;20.90;;;;;;;;;;4460766;32;20318;-58
2021/12/23 04:18:22;;;;;;;38.50;20.60;;;;;;;;;;4454338;32;20367;-56
2021/12/23 04:20:56;;;;;;;38.57;19.57;;;;;;;;;;4465309;32;20240;-57
2021/12/23 04:23:27;;;;;;;53.53;23.80;;;;;;;;;;4465142;32;20327;-57
2021/12/23 04:25:55;;;;;;;61.60;28.93;;;;;;;;;;4465034;32;20236;-57
2021/12/23 04:28:22;;;;;;;47.53;25.63;;;;;;;;;;4463820;32;20267;-57
2021/12/23 04:30:47;;;;;;;51.57;29.87;;;;;;;;;;4464180;32;20280;-56
2021/12/23 04:33:13;;;;;;;55.50;28.90;;;;;;;;;;4464422;32;20318;-56
2021/12/23 04:35:39;;;;;;;63.27;30.50;;;;;;;;;;4463792;32;20247;-56
2021/12/23 04:38:05;;;;;;;58.43;28.87;;;;;;;;;;4463541;32;20705;-55
2021/12/23 04:40:34;;;;;;;56.27;26.13;;;;;;;;;;4462468;32;20529;-56
2021/12/23 04:42:59;;;;;;;54.60;23.97;;;;;;;;;;4449764;32;20334;-56
2021/12/23 04:45:25;;;;;;;59.10;25.00;;;;;;;;;;4459263;32;20686;-56
2021/12/23 04:47:50;;;;;;;62.73;30.10;;;;;;;;;;4451885;32;20299;-56
2021/12/23 04:50:16;;;;;;;65.20;30.53;;;;;;;;;;4464498;32;20605;-56
2021/12/23 04:52:44;;;;;;;59.67;30.07;;;;;;;;;;4449435;32;20236;-55
2021/12/23 04:55:11;;;;;;;69.17;30.73;;;;;;;;;;4456726;32;20325;-57
2021/12/23 04:57:36;;;;;;;61.50;31.17;;;;;;;;;;4464503;32;20253;-55
2021/12/23 05:00:08;;;;;;;62.67;28.90;;;;;;;;;;4464187;32;20660;-58
2021/12/23 05:02:34;;;;;;;55.97;29.00;;;;;;;;;;4462888;32;20715;-56
2021/12/23 05:04:59;;;;;;;46.67;23.27;;;;;;;;;;4464155;32;20248;-56
2021/12/23 05:07:25;;;;;;;52.50;24.33;;;;;;;;;;4464062;32;20707;-57
2021/12/23 05:09:50;;;;;;;51.43;25.30;;;;;;;;;;4465303;32;20235;-57
2021/12/23 05:12:16;;;;;;;46.73;22.70;;;;;;;;;;4464139;32;20219;-57
2021/12/23 05:14:41;;;;;;;58.30;25.10;;;;;;;;;;4461366;32;20719;-57
2021/12/23 05:17:07;;;;;;;77.40;31.23;;;;;;;;;;4449399;32;20254;-58
2021/12/23 05:19:32;;;;;;;109.63;39.03;;;;;;;;;;4451901;32;20275;-57
2021/12/23 05:21:57;;;;;;;130.03;57.07;;;;;;;;;;4460712;32;20223;-57
2021/12/23 05:24:23;;;;;;;129.00;57.53;;;;;;;;;;4449203;32;20324;-56
2021/12/23 05:26:48;;;;;;;122.30;58.77;;;;;;;;;;4447700;32;20228;-57
2021/12/23 05:29:14;;;;;;;120.70;57.17;;;;;;;;;;4448742;32;20263;-57
2021/12/23 05:31:41;;;;;;;118.93;52.40;;;;;;;;;;4457047;32;20262;-56
2021/12/23 05:34:06;;;;;;;127.63;57.90;;;;;;;;;;4463766;32;20216;-57
2021/12/23 05:36:32;;;;;;;121.77;55.67;;;;;;;;;;4451471;32;22086;-56
2021/12/23 05:38:58;;;;;;;105.97;52.37;;;;;;;;;;4463816;32;20282;-56
2021/12/23 05:41:26;;;;;;;122.80;56.07;;;;;;;;;;4463748;32;20224;-56
2021/12/23 05:43:54;;;;;;;107.33;48.10;;;;;;;;;;4462763;32;20703;-57
2021/12/23 05:46:20;;;;;;;112.70;52.23;;;;;;;;;;4462349;32;20251;-55
2021/12/23 05:48:45;;;;;;;130.10;57.40;;;;;;;;;;4461696;32;20413;-58
2021/12/23 05:51:11;;;;;;;116.00;62.13;;;;;;;;;;4463341;32;20307;-56
2021/12/23 05:53:36;;;;;;;162.17;77.43;;;;;;;;;;4463809;32;20286;-57
2021/12/23 05:56:02;;;;;;;135.13;64.33;;;;;;;;;;4462023;32;20224;-57
2021/12/23 05:58:28;;;;;;;123.57;64.70;;;;;;;;;;4451966;32;20267;-57
2021/12/23 06:00:53;;;;;;;126.00;60.83;;;;;;;;;;4454285;32;20639;-56
2021/12/23 06:03:19;;;;;;;142.93;60.10;;;;;;;;;;4459465;32;20256;-56
2021/12/23 06:05:44;;;;;;;169.60;77.30;;;;;;;;;;4463740;32;20331;-55
2021/12/23 06:08:10;;;;;;;184.40;84.77;;;;;;;;;;4462998;32;20303;-56
2021/12/23 06:10:36;;;;;;;151.73;68.60;;;;;;;;;;4462125;32;20239;-56
2021/12/23 06:13:01;;;;;;;158.70;69.93;;;;;;;;;;4448092;32;20346;-56
2021/12/23 06:15:27;;;;;;;137.43;62.13;;;;;;;;;;4447664;32;20266;-56
2021/12/23 06:17:52;;;;;;;114.30;51.90;;;;;;;;;;4449342;32;20331;-56
2021/12/23 06:20:18;;;;;;;145.13;67.00;;;;;;;;;;4456982;32;20518;-54
2021/12/23 06:22:43;;;;;;;129.83;57.43;;;;;;;;;;4447483;32;20641;-55
2021/12/23 06:25:11;;;;;;;128.17;59.67;;;;;;;;;;4456636;32;20307;-58
2021/12/23 06:27:36;;;;;;;139.50;65.47;;;;;;;;;;4463172;32;20212;-55
2021/12/23 06:30:13;;;;;;;125.47;62.43;;;;;;;;;;4450925;32;20306;-57
2021/12/23 06:32:39;;;;;;;108.30;52.47;;;;;;;;;;4448256;32;20208;-57
2021/12/23 06:35:05;;;;;;;122.97;55.37;;;;;;;;;;4452981;32;20251;-57
2021/12/23 06:37:31;;;;;;;108.23;55.77;;;;;;;;;;4463270;32;20272;-57
2021/12/23 06:39:56;;;;;;;100.93;51.77;;;;;;;;;;4452511;32;20555;-57
2021/12/23 06:42:23;;;;;;;107.93;51.20;;;;;;;;;;4446859;32;20232;-56
2021/12/23 06:44:48;;;;;;;102.87;49.97;;;;;;;;;;4445698;32;20756;-57
2021/12/23 06:47:14;;;;;;;112.27;54.20;;;;;;;;;;4457437;32;20225;-58
2021/12/23 06:49:39;;;;;;;116.30;48.63;;;;;;;;;;4452680;32;20287;-56
2021/12/23 06:52:05;;;;;;;105.40;49.33;;;;;;;;;;4443935;32;20286;-57
2021/12/23 06:54:30;;;;;;;93.57;49.43;;;;;;;;;;4449827;32;20395;-56
2021/12/23 06:56:56;;;;;;;113.73;51.43;;;;;;;;;;4459979;32;20297;-56
2021/12/23 06:59:22;;;;;;;126.10;66.50;;;;;;;;;;4453988;32;20620;-56
2021/12/23 07:01:48;;;;;;;113.90;54.17;;;;;;;;;;4445911;32;20692;-56
2021/12/23 07:04:17;;;;;;;126.83;61.83;;;;;;;;;;4451644;32;20259;-56
2021/12/23 07:06:52;;;;;;;83.33;41.43;;;;;;;;;;4462104;32;20675;-56
2021/12/23 07:09:17;;;;;;;84.10;40.10;;;;;;;;;;4462685;32;20196;-55
2021/12/23 07:11:43;;;;;;;79.03;37.10;;;;;;;;;;4462778;32;20526;-55
2021/12/23 07:14:08;;;;;;;67.53;32.83;;;;;;;;;;4461657;32;20243;-56
2021/12/23 07:16:37;;;;;;;97.80;46.20;;;;;;;;;;4448777;32;20236;-56
2021/12/23 07:19:02;;;;;;;64.80;33.27;;;;;;;;;;4456978;32;20375;-58
2021/12/23 07:21:28;;;;;;;75.07;37.83;;;;;;;;;;4456861;32;20606;-56
2021/12/23 07:23:53;;;;;;;130.50;59.97;;;;;;;;;;4457551;32;20583;-57
2021/12/23 07:26:19;;;;;;;98.13;52.53;;;;;;;;;;4461592;32;20236;-57
2021/12/23 07:28:44;;;;;;;95.80;42.67;;;;;;;;;;4458029;32;20796;-56
2021/12/23 07:31:10;;;;;;;60.00;33.63;;;;;;;;;;4451166;32;20636;-56
2021/12/23 07:33:35;;;;;;;70.03;32.73;;;;;;;;;;4461416;32;20291;-58
2021/12/23 07:36:04;;;;;;;53.33;28.67;;;;;;;;;;4452982;32;20333;-58
2021/12/23 07:38:31;;;;;;;62.93;32.97;;;;;;;;;;4445094;32;20339;-58
2021/12/23 07:40:57;;;;;;;58.83;29.27;;;;;;;;;;4462180;32;20267;-57
2021/12/23 07:43:42;;;;;;;62.03;29.20;;;;;;;;;;4446642;32;20253;-57
2021/12/23 07:46:08;;;;;;;51.73;26.90;;;;;;;;;;4443585;32;20680;-57
2021/12/23 07:48:34;;;;;;;55.00;26.70;;;;;;;;;;4449868;32;20216;-57
2021/12/23 07:51:02;;;;;;;43.37;24.83;;;;;;;;;;4462369;32;20374;-57
2021/12/23 07:53:27;;;;;;;48.27;26.53;;;;;;;;;;4454863;32;20607;-57
2021/12/23 07:55:53;;;;;;;74.63;30.47;;;;;;;;;;4452078;32;20245;-57
2021/12/23 07:58:18;;;;;;;59.70;29.87;;;;;;;;;;4457502;32;20223;-56
2021/12/23 08:00:44;;;;;;;56.83;28.77;;;;;;;;;;4461861;32;20351;-56
2021/12/23 08:03:10;;;;;;;49.47;27.43;;;;;;;;;;4461568;32;20242;-56
2021/12/23 08:05:36;;;;;;;59.37;29.17;;;;;;;;;;4444833;32;20612;-55
2021/12/23 08:08:03;;;;;;;47.37;27.47;;;;;;;;;;4461582;32;20303;-55
2021/12/23 08:10:29;;;;;;;47.67;26.50;;;;;;;;;;4461714;32;20243;-56
2021/12/23 08:12:55;;;;;;;60.03;29.03;;;;;;;;;;4461821;32;20230;-57
2021/12/23 08:15:20;;;;;;;51.20;26.23;;;;;;;;;;4448126;32;20240;-56
2021/12/23 08:17:46;;;;;;;49.20;27.63;;;;;;;;;;4454588;32;20224;-57
2021/12/23 08:20:13;;;;;;;69.63;32.90;;;;;;;;;;4463225;32;20321;-57
2021/12/23 08:22:40;;;;;;;63.70;33.27;;;;;;;;;;4457214;32;20216;-57
2021/12/23 08:25:06;;;;;;;52.27;27.20;;;;;;;;;;4460570;32;20255;-57
2021/12/23 08:27:33;;;;;;;60.00;29.80;;;;;;;;;;4460070;32;20306;-56
2021/12/23 08:29:58;;;;;;;49.97;24.60;;;;;;;;;;4460404;32;20246;-56
2021/12/23 08:32:24;;;;;;;52.03;29.33;;;;;;;;;;4464965;32;20216;-56
2021/12/23 08:34:49;;;;;;;45.07;23.73;;;;;;;;;;4460489;32;20255;-57
2021/12/23 08:37:16;;;;;;;56.30;29.57;;;;;;;;;;4464164;32;20219;-56
2021/12/23 08:39:42;;;;;;;42.43;24.67;;;;;;;;;;4463922;32;20776;-56
2021/12/23 08:42:09;;;;;;;37.47;18.70;;;;;;;;;;4462972;32;20237;-57
2021/12/23 08:44:35;;;;;;;39.40;21.20;;;;;;;;;;4457218;32;20252;-56
2021/12/23 08:47:01;;;;;;;42.27;23.20;;;;;;;;;;4460396;32;20350;-57
2021/12/23 08:49:26;;;;;;;45.67;20.43;;;;;;;;;;4463361;32;20678;-58
2021/12/23 08:51:53;;;;;;;44.77;22.17;;;;;;;;;;4464227;32;20315;-57
2021/12/23 08:54:19;;;;;;;43.77;23.17;;;;;;;;;;4459669;32;20338;-56
2021/12/23 08:56:45;;;;;;;41.43;22.87;;;;;;;;;;4464139;32;20355;-57
2021/12/23 08:59:10;;;;;;;60.93;30.93;;;;;;;;;;4464224;32;20356;-57
2021/12/23 09:01:36;;;;;;;53.77;29.53;;;;;;;;;;4463764;32;20304;-56
2021/12/23 09:04:02;;;;;;;44.87;23.57;;;;;;;;;;4464799;32;20378;-57
2021/12/23 09:06:27;;;;;;;44.77;23.33;;;;;;;;;;4464312;32;20243;-57
2021/12/23 09:08:54;;;;;;;49.83;23.50;;;;;;;;;;4464399;32;20334;-57
2021/12/23 09:11:20;;;;;;;46.57;25.17;;;;;;;;;;4463693;32;20240;-56
2021/12/23 09:13:46;;;;;;;72.63;28.67;;;;;;;;;;4463971;32;20742;-58
2021/12/23 09:16:11;;;;;;;56.97;27.73;;;;;;;;;;4464815;32;20333;-57
2021/12/23 09:18:37;;;;;;;57.93;27.83;;;;;;;;;;4454932;32;20216;-57
2021/12/23 09:21:03;;;;;;;42.23;22.67;;;;;;;;;;4462130;32;20235;-57
2021/12/23 09:23:28;;;;;;;56.13;26.77;;;;;;;;;;4457642;32;20231;-56
2021/12/23 09:25:54;;;;;;;57.17;27.63;;;;;;;;;;4463507;32;20250;-56
2021/12/23 09:33:48;;;;;;;43.93;26.37;;;;;;;;;;4464896;32;20311;-56
2021/12/23 09:36:14;;;;;;;58.53;29.47;;;;;;;;;;4461000;32;20632;-55
2021/12/23 09:38:39;;;;;;;76.60;35.93;;;;;;;;;;4464942;32;20344;-57
2021/12/23 09:41:07;;;;;;;188.17;69.43;;;;;;;;;;4455124;32;20543;-56
2021/12/23 09:43:36;;;;;;;58.80;29.33;;;;;;;;;;4458335;32;20208;-55
2021/12/23 09:46:02;;;;;;;78.00;36.53;;;;;;;;;;4453650;32;20334;-56
2021/12/23 09:48:30;;;;;;;55.87;29.07;;;;;;;;;;4448051;32;20590;-55
2021/12/23 09:51:04;;;;;;;47.37;25.97;;;;;;;;;;4456633;32;20294;-57
2021/12/23 09:53:32;;;;;;;66.07;36.73;;;;;;;;;;4454655;32;20224;-56
2021/12/23 09:55:59;;;;;;;53.53;27.07;;;;;;;;;;4450394;32;20576;-56
2021/12/23 09:58:25;;;;;;;49.63;25.90;;;;;;;;;;4447018;32;20255;-58
2021/12/23 10:00:51;;;;;;;52.03;26.73;;;;;;;;;;4457302;32;20224;-56
2021/12/23 10:03:19;;;;;;;41.10;21.60;;;;;;;;;;4464334;32;20271;-57
2021/12/23 10:05:45;;;;;;;35.53;18.63;;;;;;;;;;4462559;32;20649;-57
2021/12/23 10:08:13;;;;;;;32.17;20.13;;;;;;;;;;4464186;32;20339;-56
2021/12/23 10:10:54;;;;;;;43.57;20.50;;;;;;;;;;4457884;32;20345;-55
2021/12/23 10:28:01;;;;;;;29.80;14.33;;;;;;;;;;4453656;32;20702;-56
2021/12/23 10:38:42;;;;;;;32.03;14.83;;;;;;;;;;4460175;32;20321;-55
2021/12/23 10:41:28;;;;;;;21.73;14.70;;;;;;;;;;4452123;32;20244;-58
2021/12/23 10:43:59;;;;;;;29.57;15.83;;;;;;;;;;4458303;32;20251;-56
2021/12/23 10:46:28;;;;;;;32.60;17.77;;;;;;;;;;4445507;32;20272;-56
2021/12/23 10:51:59;;;;;;;31.57;16.90;;;;;;;;;;4459440;32;20664;-56
2021/12/23 11:00:18;;;;;;;46.83;19.23;;;;;;;;;;4454666;32;20274;-56
2021/12/23 11:03:25;;;;;;;50.83;22.77;;;;;;;;;;4452088;32;20275;-56
2021/12/23 11:06:12;;;;;;;27.77;14.53;;;;;;;;;;4454131;32;20243;-56
2021/12/23 11:08:53;;;;;;;26.20;14.70;;;;;;;;;;4461506;32;20530;-56
2021/12/23 11:12:07;;;;;;;23.70;13.07;;;;;;;;;;4460852;32;20265;-56
2021/12/23 11:36:20;;;;;;;29.63;16.30;;;;;;;;;;4457681;32;20294;-56
2021/12/23 11:41:32;;;;;;;23.73;13.80;;;;;;;;;;4462458;32;20296;-56
2021/12/23 11:44:00;;;;;;;48.37;24.67;;;;;;;;;;4448077;32;20232;-56
2021/12/23 11:46:35;;;;;;;27.50;16.50;;;;;;;;;;4450473;32;20371;-57
2021/12/23 11:49:03;;;;;;;38.40;15.83;;;;;;;;;;4454346;32;20249;-56
2021/12/23 11:51:44;;;;;;;22.63;14.13;;;;;;;;;;4454495;32;20647;-56
2021/12/23 11:54:13;;;;;;;31.43;19.13;;;;;;;;;;4455403;32;20208;-56
2021/12/23 11:56:44;;;;;;;41.93;24.33;;;;;;;;;;4461122;32;20244;-56
2021/12/23 11:59:13;;;;;;;38.53;20.67;;;;;;;;;;4458486;32;20628;-56
2021/12/23 12:01:53;;;;;;;32.07;16.53;;;;;;;;;;4460055;32;20253;-57
2021/12/23 12:04:24;;;;;;;27.30;14.83;;;;;;;;;;4458905;32;20216;-57
2021/12/23 12:06:52;;;;;;;37.47;19.20;;;;;;;;;;4459423;32;20669;-56
2021/12/23 12:09:26;;;;;;;39.83;21.10;;;;;;;;;;4459296;32;20288;-57
2021/12/23 12:12:11;;;;;;;38.60;18.40;;;;;;;;;;4462232;32;20373;-57
2021/12/23 12:14:40;;;;;;;34.27;18.40;;;;;;;;;;4465676;32;20291;-57
2021/12/23 12:17:23;;;;;;;25.10;15.60;;;;;;;;;;4461387;32;20270;-56
2021/12/23 12:19:56;;;;;;;24.17;15.10;;;;;;;;;;4453643;32;20367;-56
2021/12/23 12:22:49;;;;;;;31.60;16.70;;;;;;;;;;4457507;32;20292;-56
2021/12/23 12:25:24;;;;;;;58.33;23.33;;;;;;;;;;4457837;32;20266;-57
2021/12/23 12:27:55;;;;;;;57.37;23.47;;;;;;;;;;4467016;32;20580;-56
2021/12/23 12:30:38;;;;;;;31.73;15.53;;;;;;;;;;4465258;32;20236;-55
2021/12/23 12:33:10;;;;;;;41.60;22.40;;;;;;;;;;4465223;32;20721;-56
2021/12/23 12:35:36;;;;;;;35.60;18.00;;;;;;;;;;4456339;32;20559;-57
2021/12/23 12:38:12;;;;;;;84.37;38.50;;;;;;;;;;4451655;32;20288;-55
2021/12/23 12:41:18;;;;;;;40.23;22.33;;;;;;;;;;4450893;32;20263;-55
2021/12/23 12:43:49;;;;;;;27.50;14.80;;;;;;;;;;4451173;32;20735;-57
2021/12/23 12:46:44;;;;;;;31.53;15.67;;;;;;;;;;4462109;32;20251;-57
2021/12/23 12:49:25;;;;;;;26.47;14.97;;;;;;;;;;4465947;32;20246;-56
2021/12/23 12:51:52;;;;;;;24.20;11.53;;;;;;;;;;4452981;32;20252;-57
2021/12/23 12:54:32;;;;;;;20.87;11.40;;;;;;;;;;4465433;32;20319;-57
2021/12/23 12:57:03;;;;;;;33.50;11.43;;;;;;;;;;4451321;32;20534;-57
2021/12/23 12:59:31;;;;;;;29.67;14.13;;;;;;;;;;4451072;32;20227;-55
2021/12/23 13:01:58;;;;;;;48.63;22.23;;;;;;;;;;4453643;32;20871;-56
2021/12/23 13:04:30;;;;;;;25.63;13.13;;;;;;;;;;4466143;32;20264;-56
2021/12/23 13:06:58;;;;;;;20.50;12.00;;;;;;;;;;4465066;32;20285;-56
2021/12/23 13:09:35;;;;;;;23.07;12.30;;;;;;;;;;4460786;32;20263;-56
2021/12/23 13:12:04;;;;;;;23.20;13.23;;;;;;;;;;4461540;32;20244;-55
2021/12/23 13:14:57;;;;;;;41.70;19.10;;;;;;;;;;4460783;32;20247;-57
2021/12/23 13:17:24;;;;;;;31.37;15.50;;;;;;;;;;4454313;32;20314;-56
2021/12/23 13:19:50;;;;;;;32.30;13.57;;;;;;;;;;4461499;32;20359;-56
2021/12/23 13:22:18;;;;;;;29.53;14.20;;;;;;;;;;4453137;32;20245;-56
2021/12/23 13:24:44;;;;;;;24.50;12.03;;;;;;;;;;4461768;32;20205;-56
2021/12/23 13:27:10;;;;;;;23.13;12.07;;;;;;;;;;4452114;32;20232;-56
2021/12/23 13:29:40;;;;;;;59.07;24.93;;;;;;;;;;4465172;32;20620;-55
2021/12/23 13:32:05;;;;;;;53.37;23.63;;;;;;;;;;4465563;32;20276;-56
2021/12/23 13:34:35;;;;;;;43.73;18.77;;;;;;;;;;4464417;32;20307;-56
2021/12/23 13:37:06;;;;;;;36.27;16.00;;;;;;;;;;4464272;32;20224;-56
2021/12/23 13:39:36;;;;;;;33.63;16.50;;;;;;;;;;4464983;32;20287;-56
2021/12/23 13:42:04;;;;;;;112.43;44.17;;;;;;;;;;4457575;32;20311;-56
2021/12/23 13:44:38;;;;;;;31.20;17.37;;;;;;;;;;4463943;32;20208;-57
2021/12/23 13:47:09;;;;;;;36.33;15.07;;;;;;;;;;4452078;32;20228;-56
2021/12/23 13:49:51;;;;;;;28.00;14.17;;;;;;;;;;4463548;32;20213;-57
2021/12/23 13:52:22;;;;;;;38.70;14.77;;;;;;;;;;4451725;32;20243;-57
2021/12/23 13:54:48;;;;;;;36.50;16.83;;;;;;;;;;4449913;32;20255;-56
2021/12/23 13:57:16;;;;;;;40.27;16.90;;;;;;;;;;4456829;32;20299;-56
2021/12/23 13:59:43;;;;;;;37.60;16.20;;;;;;;;;;4455573;32;20307;-56
2021/12/23 14:02:12;;;;;;;28.73;15.90;;;;;;;;;;4457811;32;20234;-55
2021/12/23 14:04:41;;;;;;;35.47;18.40;;;;;;;;;;4464139;32;20235;-55
2021/12/23 14:07:28;;;;;;;38.80;19.60;;;;;;;;;;4462086;32;20555;-56
2021/12/23 14:10:08;;;;;;;52.53;22.83;;;;;;;;;;4445746;32;20247;-55
2021/12/23 14:13:00;;;;;;;72.63;31.83;;;;;;;;;;4450706;32;20232;-56
2021/12/23 14:15:49;;;;;;;57.17;28.87;;;;;;;;;;4455181;32;20280;-57
2021/12/23 14:23:59;;;;;;;64.17;33.50;;;;;;;;;;4452842;32;20242;-56
2021/12/23 14:26:31;;;;;;;78.03;38.93;;;;;;;;;;4458839;32;20415;-56
2021/12/23 14:29:09;;;;;;;85.53;40.07;;;;;;;;;;4464591;32;20275;-56
2021/12/23 14:31:42;;;;;;;86.60;41.30;;;;;;;;;;4461933;32;20303;-56
2021/12/23 14:34:27;;;;;;;84.27;44.60;;;;;;;;;;4463070;32;20212;-55
2021/12/23 14:36:55;;;;;;;93.00;46.70;;;;;;;;;;4461988;32;20236;-56
2021/12/23 14:39:27;;;;;;;114.17;53.70;;;;;;;;;;4463503;32;20215;-56
2021/12/23 14:41:56;;;;;;;84.43;46.20;;;;;;;;;;4461567;32;20380;-56
2021/12/23 14:44:23;;;;;;;94.67;46.93;;;;;;;;;;4453819;32;20331;-55
2021/12/23 14:46:55;;;;;;;99.77;49.57;;;;;;;;;;4453212;32;20228;-56
2021/12/23 14:51:53;;;;;;;109.70;50.27;;;;;;;;;;4455124;32;20270;-56
2021/12/23 14:54:21;;;;;;;120.97;54.97;;;;;;;;;;4452893;32;20228;-56
2021/12/23 14:57:01;;;;;;;137.37;59.00;;;;;;;;;;4459404;32;20298;-56
2021/12/23 14:59:27;;;;;;;135.17;55.47;;;;;;;;;;4448806;32;20219;-57
2021/12/23 15:02:06;;;;;;;141.97;65.00;;;;;;;;;;4462884;32;20766;-58
2021/12/23 15:04:31;;;;;;;157.90;74.77;;;;;;;;;;4451735;32;20464;-56
2021/12/23 15:07:00;;;;;;;143.77;74.73;;;;;;;;;;4459355;32;20220;-56
2021/12/23 15:09:28;;;;;;;148.67;75.20;;;;;;;;;;4453531;32;20224;-56
2021/12/23 15:11:54;;;;;;;161.83;78.90;;;;;;;;;;4448575;32;20271;-57
2021/12/23 15:14:20;;;;;;;165.73;83.47;;;;;;;;;;4450106;32;20280;-56
2021/12/23 15:16:59;;;;;;;165.87;82.23;;;;;;;;;;4453281;32;20390;-56
2021/12/23 15:19:38;;;;;;;197.60;87.13;;;;;;;;;;4455483;32;20247;-57
2021/12/23 15:22:36;;;;;;;216.77;93.37;;;;;;;;;;4448862;32;20744;-55
2021/12/23 15:25:10;;;;;;;200.33;94.97;;;;;;;;;;4439316;32;20643;-56
2021/12/23 15:27:40;;;;;;;229.57;105.67;;;;;;;;;;4460423;32;20264;-56
2021/12/23 15:30:18;;;;;;;219.07;98.00;;;;;;;;;;4463048;32;20567;-56
2021/12/23 15:32:44;;;;;;;245.23;108.90;;;;;;;;;;4461736;32;20271;-56
2021/12/23 15:35:14;;;;;;;234.90;105.70;;;;;;;;;;4454018;32;20576;-57